Giewont — C6YE4 — position and weather

sailwx.info

Track history (hours):
 
Tides and Currents Weather Stations Pressure Air Temp Water Temp Dewpoint Dewpoint Depression Visibility Wind Speed Wind Dir Waves Ship Positions

Giewont

Last reported at 2014-Aug-31 12:22 UTC. Time now 2014-Oct-02 00:29 UTC.
Position N 01°09' E 103°46'.
Warning: this ship's position is 31 days out of date.

Length 229 m; draft 14.5 m.

Type: Cargo ship. MMSI: 311029800.

Date/timePositionNaut miles runAvg speedWind from/ knotsBaromVisibWave heightAir tempDewpointWater temp
2014-Aug-31 12:22N 01°09' E 103°46'910.5
2014-Aug-31 11:33N 01°13' E 103°53'4 3.9
2014-Aug-31 10:26N 01°16' E 103°57'0 0.0
2014-Aug-31 09:26N 01°16' E 103°57'0 0.1
2014-Aug-31 08:32N 01°16' E 103°57'0 0.3
2014-Aug-31 07:29N 01°16' E 103°56'0 0.0
2014-Aug-31 06:20N 01°16' E 103°56'0 0.0
2014-Aug-31 05:32N 01°16' E 103°56'0 0.0
2014-Aug-31 04:26N 01°16' E 103°56'0 0.1
2014-Aug-31 03:32N 01°16' E 103°56'0 0.0
2014-Aug-31 02:32N 01°16' E 103°56'0 0.0
2014-Aug-31 01:11N 01°16' E 103°56'0 0.2
2014-Aug-31 00:32N 01°16' E 103°56'0 0.1
2014-Aug-30 23:32N 01°16' E 103°57'0 0.1
2014-Aug-30 22:23N 01°16' E 103°56'0 0.0
2014-Aug-30 21:32N 01°16' E 103°56'0 0.0
2014-Aug-30 20:32N 01°16' E 103°56'1 1.3
2014-Aug-30 19:33N 01°16' E 103°58'7 6.5
2014-Aug-30 18:32N 01°16' E 104°04'  
Track history (hours):
 
Tides and Currents Weather Stations Pressure Air Temp Water Temp Dewpoint Dewpoint Depression Visibility Wind Speed Wind Dir Waves Ship Positions

Giewont

Last reported at 2014-Aug-31 12:22 UTC. Time now 2014-Oct-02 00:29 UTC.
Position N 01°09' E 103°46'.
Warning: this ship's position is 31 days out of date.

Length 229 m; draft 14.5 m.

Type: Cargo ship. MMSI: 311029800.

Date/timePositionNaut miles runAvg speedWind from/ knotsBaromVisibWave heightAir tempDewpointWater temp
2014-Aug-31 12:22N 01°09' E 103°46'910.5
2014-Aug-31 11:33N 01°13' E 103°53'4 3.9
2014-Aug-31 10:26N 01°16' E 103°57'0 0.0
2014-Aug-31 09:26N 01°16' E 103°57'0 0.1
2014-Aug-31 08:32N 01°16' E 103°57'0 0.3
2014-Aug-31 07:29N 01°16' E 103°56'0 0.0
2014-Aug-31 06:20N 01°16' E 103°56'0 0.0
2014-Aug-31 05:32N 01°16' E 103°56'0 0.0
2014-Aug-31 04:26N 01°16' E 103°56'0 0.1
2014-Aug-31 03:32N 01°16' E 103°56'0 0.0
2014-Aug-31 02:32N 01°16' E 103°56'0 0.0
2014-Aug-31 01:11N 01°16' E 103°56'0 0.2
2014-Aug-31 00:32N 01°16' E 103°56'0 0.1
2014-Aug-30 23:32N 01°16' E 103°57'0 0.1
2014-Aug-30 22:23N 01°16' E 103°56'0 0.0
2014-Aug-30 21:32N 01°16' E 103°56'0 0.0
2014-Aug-30 20:32N 01°16' E 103°56'1 1.3
2014-Aug-30 19:33N 01°16' E 103°58'7 6.5
2014-Aug-30 18:32N 01°16' E 104°04'  

Dump ship's entire track history